Latest Weather Observations for Nerriga

IDN60801

Issued at 5:03 am EST Friday 28 August 2015 (issued every 30 minutes, with the page automatically refreshed every 10 minutes)

About weather observations | Map of weather stations | Latest weather observations for NSW | Other Formats
Station Details ID: 069128 Name: NERRIGA AWS Lat: -35.11 Lon: 150.08 Height: 622.0 m
Data from the previous 72 hours. | See also: Recent months at Nerriga
Date/Time
EST
Temp
°C
App
Temp
°C
Dew
Point
Rel
Hum
%
Delta-T
°C
Wind Press
QNH
hPa
Press
MSL
hPa
Rain
since 9 am
mm
Dir
 
Spd
km/h
Gust
km/h
Spd
kts
Gust
kts
28/05:00am 6.2 1.2 3.7 84 1.1 W 19 28 10 15 1016.8 1017.6 0.2
28/04:30am 6.2 1.7 4.0 86 1.0 W 17 24 9 13 1016.6 1017.4 0.2
28/04:00am 6.4 1.4 4.4 87 0.9 W 20 30 11 16 1016.4 1017.1 0.2
28/03:30am 6.6 2.2 4.8 88 0.8 WNW 17 24 9 13 1016.3 1017.0 0.2
28/03:00am 6.7 2.7 5.0 89 0.8 W 15 20 8 11 1016.3 1017.0 0.2
28/02:30am 6.3 3.8 4.8 90 0.7 WNW 7 13 4 7 1016.5 1017.3 0.2
28/02:00am 6.5 2.9 4.8 89 0.8 WNW 13 20 7 11 1016.7 1017.5 0.2
28/01:30am 6.5 3.6 4.8 89 0.8 WNW 9 13 5 7 1017.0 1017.7 0.2
28/01:00am 6.8 2.8 4.8 87 0.9 W 15 24 8 13 1017.1 1017.8 0.2
28/12:30am 6.7 3.1 4.9 88 0.8 W 13 17 7 9 1017.2 1017.9 0.2
28/12:00am 6.9 2.1 4.7 86 1.0 W 19 26 10 14 1017.0 1017.7 0.2
 
Date/Time
EST
Temp
°C
App
Temp
°C
Dew
Point
Rel
Hum
%
Delta-T
°C
Wind Press
QNH
hPa
Press
MSL
hPa
Rain
since 9 am
mm
Dir
 
Spd
km/h
Gust
km/h
Spd
kts
Gust
kts
27/11:30pm 6.7 2.7 4.7 87 0.9 W 15 20 8 11 1017.2 1017.9 0.2
27/11:00pm 6.4 1.6 4.4 87 0.9 W 19 24 10 13 1017.3 1018.0 0.2
27/10:30pm 6.4 1.9 4.2 86 1.0 W 17 24 9 13 1017.4 1018.1 0.2
27/10:00pm 6.6 1.7 4.3 85 1.0 WNW 19 28 10 15 1017.3 1018.0 0.2
27/09:30pm 6.8 1.8 4.5 85 1.0 WNW 20 33 11 18 1017.3 1018.0 0.2
27/09:00pm 7.2 2.2 4.5 83 1.2 WNW 20 35 11 19 1017.6 1018.3 0.2
27/08:30pm 7.9 3.9 4.8 81 1.4 WNW 15 24 8 13 1017.2 1017.9 0.2
27/08:00pm 8.0 2.0 5.1 82 1.3 NW 26 35 14 19 1016.5 1017.3 0.2
27/07:30pm 8.3 3.7 5.8 84 1.2 NW 19 26 10 14 1017.0 1017.7 0.2
27/07:00pm 9.0 5.6 6.1 82 1.4 WNW 13 20 7 11 1016.8 1017.6 0.2
27/06:30pm 9.4 4.9 5.9 79 1.7 WNW 19 28 10 15 1016.4 1017.1 0.2
27/06:00pm 9.7 5.1 5.7 76 1.9 NW 19 24 10 13 1016.3 1017.0 0.2
27/05:30pm 10.2 3.8 5.4 72 2.3 NW 28 39 15 21 1015.9 1016.6 0.2
27/05:00pm 11.2 5.7 5.9 70 2.6 NW 24 37 13 20 1015.7 1016.4 0.2
27/04:30pm 11.6 6.8 5.5 66 2.9 WNW 20 28 11 15 1015.3 1016.0 0.2
27/04:00pm 13.5 7.3 6.1 61 3.6 NW 28 39 15 21 1015.1 1015.9 0.2
27/03:30pm 13.5 6.7 5.2 57 4.0 WNW 30 44 16 24 1014.8 1015.5 0.2
27/03:00pm 14.1 9.5 6.7 61 3.7 WNW 20 30 11 16 1015.3 1016.0 0.2
27/02:30pm 14.5 9.2 8.5 67 3.1 NW 26 39 14 21 1015.4 1016.1 0.2
27/02:00pm 13.5 8.5 7.9 69 2.9 WNW 24 35 13 19 1015.7 1016.4 0.2
27/01:30pm 13.1 7.5 7.3 68 2.9 WNW 26 37 14 20 1016.0 1016.7 0.2
27/01:00pm 14.4 10.6 9.0 70 2.8 WNW 19 30 10 16 1016.3 1017.0 0.2
27/12:30pm 14.1 10.3 8.9 71 2.7 NW 19 33 10 18 1016.7 1017.5 0.2
27/12:00pm 13.2 9.2 8.9 75 2.2 WNW 20 30 11 16 1017.2 1017.9 0.2
27/11:30am 13.0 10.3 10.5 85 1.3 WNW 15 26 8 14 1017.8 1018.6 0.2
27/11:00am 11.4 9.3 9.8 90 0.8 NW 11 19 6 10 1018.4 1019.2 0.2
27/10:30am 10.8 8.8 10.3 97 0.3 SSW 11 15 6 8 1018.8 1019.5 0.2
27/10:00am 10.5 9.2 10.0 97 0.3 SSW 7 9 4 5 1019.0 1019.7 0.0
27/09:30am 10.5 10.2 10.2 98 0.2 SSW 2 9 1 5 1019.2 1020.0 0.0
27/09:00am 10.4 10.2 10.4 100 0.0 SSW 2 4 1 2 1019.0 1019.7 8.2
27/08:30am 9.9 8.8 9.9 100 0.0 SSW 6 6 3 3 1019.6 1020.4 8.2
27/08:00am 9.5 8.7 9.5 100 0.0 SSW 4 7 2 4 1019.6 1020.4 8.2
27/07:30am 9.3 9.2 9.3 100 0.0 CALM 0 0 0 0 1019.3 1020.1 8.2
27/07:00am 9.2 7.9 9.2 100 0.0 SSW 6 9 3 5 1019.0 1019.7 8.2
27/06:30am 9.2 9.0 9.2 100 0.0 CALM 0 2 0 1 1019.2 1020.0 8.2
27/06:00am 9.2 8.3 9.2 100 0.0 SSW 4 6 2 3 1019.0 1019.7 8.2
27/05:30am 9.3 8.4 9.3 100 0.0 SSW 4 6 2 3 1018.9 1019.6 8.2
27/05:00am 9.5 8.7 9.5 100 0.0 SSW 4 6 2 3 1019.4 1020.2 8.0
27/04:30am 9.5 9.4 9.5 100 0.0 CALM 0 2 0 1 1019.3 1020.1 8.0
27/04:00am 9.2 8.3 9.2 100 0.0 SSW 4 6 2 3 1019.2 1020.0 8.0
27/03:30am 9.0 8.8 9.0 100 0.0 CALM 0 4 0 2 1018.5 1019.3 8.0
27/03:00am 9.3 8.4 9.3 100 0.0 SSW 4 6 2 3 1019.0 1019.7 8.0
27/02:30am 9.6 8.8 9.6 100 0.0 SSW 4 6 2 3 1019.9 1020.7 7.8
27/02:00am 9.6 8.4 9.6 100 0.0 SSW 6 6 3 3 1020.0 1020.8 7.8
27/01:30am 9.7 8.9 9.7 100 0.0 SSW 4 7 2 4 1020.5 1021.2 7.8
27/01:00am 9.6 8.2 9.5 99 0.1 SSW 7 9 4 5 1020.5 1021.2 7.6
27/12:30am 9.6 8.4 9.5 99 0.1 SSW 6 6 3 3 1020.7 1021.5 7.6
27/12:00am 9.8 9.4 9.7 99 0.1 SSW 2 4 1 2 1021.2 1022.0 7.6
 
Date/Time
EST
Temp
°C
App
Temp
°C
Dew
Point
Rel
Hum
%
Delta-T
°C
Wind Press
QNH
hPa
Press
MSL
hPa
Rain
since 9 am
mm
Dir
 
Spd
km/h
Gust
km/h
Spd
kts
Gust
kts
26/11:30pm 9.8 9.0 9.7 99 0.1 SSW 4 6 2 3 1021.3 1022.1 7.4
26/11:00pm 9.9 9.1 9.8 99 0.1 SSW 4 6 2 3 1021.6 1022.4 7.2
26/10:30pm 9.9 8.8 9.8 99 0.1 SSW 6 6 3 3 1021.8 1022.6 7.2
26/10:00pm 9.9 9.1 9.8 99 0.1 SSW 4 4 2 2 1021.9 1022.8 7.0
26/09:30pm 9.8 8.6 9.7 99 0.1 SSW 6 7 3 4 1022.1 1022.9 7.0
26/09:00pm 9.8 8.6 9.7 99 0.1 SSW 6 7 3 4 1022.2 1023.0 7.0
26/08:30pm 9.8 8.4 9.7 99 0.1 SSW 7 9 4 5 1022.6 1023.4 6.6
26/08:00pm 9.9 8.6 9.8 99 0.1 SSW 7 11 4 6 1022.6 1023.4 6.4
26/07:30pm 10.0 8.3 9.7 98 0.2 SSW 9 13 5 7 1022.5 1023.3 6.0
26/07:00pm 10.1 8.0 9.6 97 0.3 S 11 19 6 10 1021.8 1022.6 6.0
26/06:30pm 10.2 8.1 9.7 97 0.3 S 11 17 6 9 1021.7 1022.5 5.6
26/06:00pm 10.2 8.1 9.6 96 0.3 SSE 11 17 6 9 1021.5 1022.3 5.6
26/05:30pm 10.4 9.1 9.8 96 0.3 SSE 7 11 4 6 1021.4 1022.2 5.4
26/05:00pm 10.5 8.4 9.6 94 0.5 SSE 11 24 6 13 1021.0 1021.8 5.2
26/04:30pm 10.9 8.4 9.7 92 0.6 SSE 13 24 7 13 1020.5 1021.2 5.2
26/04:00pm 10.9 7.6 9.7 92 0.6 S 17 30 9 16 1020.6 1021.4 5.0
26/03:30pm 11.3 7.5 9.9 91 0.7 SSE 20 32 11 17 1020.8 1021.6 5.0
26/03:00pm 11.7 8.0 10.3 91 0.7 SSE 20 32 11 17 1020.8 1021.6 5.0
26/02:30pm 11.8 8.4 10.5 92 0.7 SSE 19 26 10 14 1020.9 1021.7 5.0
26/02:00pm 11.6 8.6 10.7 94 0.5 SSE 17 26 9 14 1020.9 1021.7 5.0
26/01:30pm 11.3 7.6 10.2 93 0.6 S 20 30 11 16 1021.1 1021.9 4.8
26/01:00pm 11.1 7.5 10.0 93 0.6 S 19 28 10 15 1021.2 1022.0 4.6
26/12:30pm 12.0 8.1 10.9 93 0.6 SSE 22 35 12 19 1021.4 1022.2 3.6
26/12:00pm 11.9 7.6 10.8 93 0.6 SSE 24 35 13 19 1021.7 1022.5 3.6
26/11:30am 11.4 7.8 10.6 95 0.4 SSE 20 39 11 21 1022.3 1023.1 3.6
26/11:00am 11.2 8.2 10.6 96 0.3 SSE 17 22 9 12 1022.3 1023.1 1.6
26/10:30am 11.2 8.6 10.6 96 0.3 SSE 15 20 8 11 1022.3 1023.1 0.8
26/10:00am 10.9 5.7 10.1 95 0.4 SSE 28 41 15 22 1022.3 1023.1 0.4
26/09:30am 10.8 7.6 10.0 95 0.4 SSE 17 24 9 13 1022.1 1022.9 0.0
26/09:00am 10.6 5.3 9.7 94 0.5 SSE 28 57 15 31 1021.7 1022.5 90.6
26/08:36am 10.4 5.0 9.6 95 0.4 SE 28 48 15 26 1021.8 1022.6 90.4
26/08:30am 10.5 4.8 9.7 95 0.4 SE 30 46 16 25 1021.8 1022.6 90.4
26/08:00am 10.4 5.5 9.8 96 0.3 SE 26 43 14 23 1021.5 1022.3 90.2
26/07:30am 10.3 5.3 9.7 96 0.3 SSE 26 37 14 20 1021.1 1021.9 89.8
26/07:12am 10.2 4.8 9.4 95 0.4 SSE 28 48 15 26 1020.7 1021.5 89.6
26/07:00am 10.0 5.3 9.4 96 0.3 SSE 24 37 13 20 1020.8 1021.6 89.6
26/06:30am 9.9 4.5 9.4 97 0.3 SSE 28 41 15 22 1020.7 1021.5 89.2
26/06:00am 9.7 6.7 9.2 97 0.3 SSE 15 22 8 12 1020.4 1021.1 88.6
26/05:30am 9.7 5.9 9.2 97 0.3 SSE 19 32 10 17 1019.9 1020.7 87.4
26/05:00am 9.8 5.5 9.3 97 0.3 SSE 22 37 12 20 1019.7 1020.5 86.6
26/04:30am 10.0 4.2 9.4 96 0.3 SSE 30 54 16 29 1019.5 1020.3 85.6
26/04:26am 10.0 3.8 9.4 96 0.3 SSE 32 52 17 28 1019.4 1020.2 85.4
26/04:00am 9.7 5.9 9.2 97 0.3 S 19 33 10 18 1019.1 1019.8 85.0
26/03:30am 9.5 5.1 9.0 97 0.3 SSE 22 32 12 17 1018.9 1019.6 84.0
26/03:00am 9.8 4.7 9.2 96 0.3 SSE 26 39 14 21 1018.8 1019.5 82.2
26/02:30am 9.7 5.0 9.2 97 0.3 SSE 24 35 13 19 1018.9 1019.6 81.0
26/02:00am 9.7 4.6 9.1 96 0.3 SSE 26 37 14 20 1019.0 1019.7 78.8
26/01:34am 9.6 4.1 9.0 96 0.3 S 28 48 15 26 1018.9 1019.6 77.2
26/01:30am 9.6 3.7 9.0 96 0.3 S 30 48 16 26 1018.9 1019.6 77.2
26/01:27am 9.6 4.1 9.0 96 0.3 S 28 48 15 26 1018.9 1019.6 77.2
26/01:00am 9.6 3.3 9.0 96 0.3 S 32 43 17 23 1018.9 1019.6 76.2
26/12:30am 9.6 5.2 9.1 97 0.3 S 22 35 12 19 1018.8 1019.5 74.6
26/12:00am 9.2 5.4 8.9 98 0.2 S 19 28 10 15 1018.8 1019.5 73.0
 
Date/Time
EST
Temp
°C
App
Temp
°C
Dew
Point
Rel
Hum
%
Delta-T
°C
Wind Press
QNH
hPa
Press
MSL
hPa
Rain
since 9 am
mm
Dir
 
Spd
km/h
Gust
km/h
Spd
kts
Gust
kts
25/11:30pm 9.2 4.4 8.7 97 0.3 S 24 37 13 20 1018.7 1019.4 71.0
25/11:00pm 8.8 4.7 8.5 98 0.2 S 20 33 11 18 1018.8 1019.5 69.0
25/10:30pm 8.5 3.5 8.1 97 0.2 S 24 43 13 23 1019.0 1019.7 66.6
25/10:00pm 8.6 2.8 8.0 96 0.3 S 28 48 15 26 1018.9 1019.6 64.2
25/09:59pm 8.6 2.8 8.0 96 0.3 S 28 48 15 26 1018.8 1019.5 64.0
25/09:30pm 8.2 3.9 7.9 98 0.1 S 20 33 11 18 1019.1 1019.8 61.6
25/09:00pm 7.9 1.6 7.5 97 0.2 S 30 48 16 26 1019.1 1019.8 59.0
25/08:30pm 7.4 1.0 7.0 97 0.2 S 30 52 16 28 1018.9 1019.6 56.4
25/08:09pm 7.3 0.9 6.9 97 0.2 S 30 48 16 26 1018.9 1019.6 55.0
25/08:00pm 7.3 0.5 6.7 96 0.3 S 32 48 17 26 1018.8 1019.5 54.2
25/07:30pm 7.5 0.5 6.9 96 0.3 S 33 56 18 30 1018.5 1019.3 51.8
25/07:00pm 7.7 0.9 7.1 96 0.3 S 32 54 17 29 1018.5 1019.3 47.8
25/06:30pm 7.9 1.0 7.3 96 0.3 S 33 54 18 29 1018.4 1019.2 44.4
25/06:01pm 8.5 2.3 7.7 95 0.4 S 30 50 16 27 1017.9 1018.7 41.0
25/06:00pm 8.5 2.3 7.9 96 0.3 S 30 48 16 26 1017.9 1018.7 40.8
25/05:30pm 8.9 2.8 8.3 96 0.3 S 30 56 16 30 1017.3 1018.0 36.2
25/05:17pm 8.8 3.1 8.4 97 0.2 S 28 50 15 27 1017.0 1017.7 34.8
25/05:00pm 8.6 3.6 8.2 97 0.2 S 24 37 13 20 1016.7 1017.5 33.0
25/04:30pm 8.5 3.9 8.1 97 0.2 S 22 39 12 21 1016.5 1017.3 29.2
25/04:00pm 8.5 2.7 7.9 96 0.3 S 28 48 15 26 1016.1 1016.8 25.4
25/03:30pm 8.5 3.5 8.1 97 0.2 SSW 24 39 13 21 1016.0 1016.7 22.8
25/03:00pm 8.5 3.5 8.1 97 0.2 SSW 24 46 13 25 1015.9 1016.6 20.2
25/02:48pm 8.4 2.6 7.8 96 0.3 SSW 28 48 15 26 1015.6 1016.3 19.4
25/02:30pm 8.3 3.7 8.0 98 0.1 SSW 22 33 12 18 1015.7 1016.4 17.4
25/02:00pm 8.3 3.6 7.9 97 0.2 SSW 22 33 12 18 1015.8 1016.5 14.2
25/01:30pm 8.5 3.5 7.9 96 0.3 SSW 24 37 13 20 1016.1 1016.8 10.2
25/01:00pm 8.4 3.7 7.8 96 0.3 SSW 22 32 12 17 1016.3 1017.0 7.8
25/12:30pm 8.4 3.3 7.8 96 0.3 SSW 24 35 13 19 1016.5 1017.3 6.6
25/12:11pm 8.3 2.4 7.5 95 0.4 SSW 28 48 15 26 1016.8 1017.6 6.2
25/12:00pm 8.2 3.1 7.6 96 0.3 SSW 24 39 13 21 1017.0 1017.7 6.0
25/11:30am 8.2 3.1 7.6 96 0.3 SSW 24 44 13 24 1017.4 1018.1 5.0
25/11:00am 8.4 2.1 7.6 95 0.4 S 30 52 16 28 1017.7 1018.4 3.0
25/10:34am 8.4 2.1 7.6 95 0.4 S 30 50 16 27 1017.7 1018.4 1.4
25/10:30am 8.3 1.4 7.4 94 0.4 S 33 50 18 27 1017.7 1018.4 1.4
25/10:00am 8.7 2.1 7.8 94 0.4 S 32 61 17 33 1017.4 1018.1 1.0
25/09:30am 8.8 2.2 7.9 94 0.4 S 32 52 17 28 1017.3 1018.0 0.6
25/09:01am 8.9 2.4 8.0 94 0.4 S 32 50 17 27 1017.2 1017.9 0.0
25/09:00am 8.9 2.2 8.0 94 0.4 S 33 50 18 27 1017.2 1017.9 18.6
25/08:30am 9.1 3.4 8.3 95 0.4 S 28 48 15 26 1017.1 1017.8 18.0
25/08:00am 9.1 3.4 8.3 95 0.4 S 28 48 15 26 1016.7 1017.5 17.4
25/07:58am 9.1 3.4 8.2 94 0.4 S 28 48 15 26 1016.7 1017.5 17.4
25/07:30am 8.9 2.7 8.0 94 0.4 SSE 30 43 16 23 1016.7 1017.5 17.2
25/07:00am 8.7 4.0 7.9 95 0.4 SSE 22 37 12 20 1016.5 1017.3 17.0
25/06:30am 8.6 4.5 7.8 95 0.4 SSE 19 30 10 16 1016.3 1017.0 16.6
25/06:00am 8.3 3.6 7.7 96 0.3 SSE 22 33 12 18 1016.1 1016.8 16.4
25/05:30am 7.8 2.6 7.1 95 0.3 S 24 43 13 23 1015.7 1016.4 15.8

Other Formats:

Comma delimited format used in spreadsheet applications
http://www.bom.gov.au/fwo/IDN60801/IDN60801.94943.axf

JavaScript Object Notation format (JSON) in row-major order
http://www.bom.gov.au/fwo/IDN60801/IDN60801.94943.json